createdAt,value
2022-11-26T00:01:20.615Z,76935.72
2022-11-26T00:03:49.116Z,76929.50
2022-11-26T00:06:28.456Z,76935.72
2022-11-26T00:08:56.525Z,76950.28
2022-11-26T00:11:24.516Z,76944.06
2022-11-26T00:13:52.229Z,76946.13
2022-11-26T00:16:20.540Z,76941.97
2022-11-26T00:18:48.270Z,76931.56
2022-11-26T00:21:19.171Z,76931.56
2022-11-26T00:23:48.433Z,76927.41
2022-11-26T00:26:19.306Z,76929.50
2022-11-26T00:28:51.420Z,76929.50
2022-11-26T00:31:19.277Z,76923.25
2022-11-26T00:33:47.331Z,76914.94
2022-11-26T00:36:19.778Z,76919.09
2022-11-26T00:38:54.647Z,76952.38
2022-11-26T00:41:24.805Z,76975.25
2022-11-26T00:43:52.820Z,76981.47
2022-11-26T00:46:22.976Z,76981.47
2022-11-26T00:48:51.908Z,76993.97
2022-11-26T00:51:23.795Z,76996.03
2022-11-26T00:53:54.543Z,76985.63
2022-11-26T00:56:23.550Z,76975.25
2022-11-26T00:58:51.819Z,76960.69
2022-11-26T01:01:23.184Z,76964.84
2022-11-26T01:03:51.479Z,76960.69
2022-11-26T01:06:22.095Z,76960.69
2022-11-26T01:08:49.804Z,76964.84
2022-11-26T01:11:21.724Z,76960.69
2022-11-26T01:13:51.729Z,76958.59
2022-11-26T01:16:22.790Z,76952.38
2022-11-26T01:18:52.381Z,76941.97
2022-11-26T01:21:21.889Z,76939.88
2022-11-26T01:23:49.963Z,76946.13
2022-11-26T01:26:23.466Z,76956.53
2022-11-26T01:28:51.361Z,76952.38
2022-11-26T01:31:22.077Z,76958.59
2022-11-26T01:33:49.935Z,76956.53
2022-11-26T01:36:26.816Z,76948.22
2022-11-26T01:38:55.261Z,76946.13
2022-11-26T01:41:39.526Z,76948.22
2022-11-26T01:44:15.071Z,76954.44
2022-11-26T01:46:43.665Z,76973.16
2022-11-26T01:49:20.316Z,76971.09
2022-11-26T01:51:51.732Z,76964.84
2022-11-26T01:54:19.602Z,76964.84
2022-11-26T01:56:52.567Z,76964.84
2022-11-26T01:59:25.455Z,76964.84
2022-11-26T02:01:56.491Z,76962.75
2022-11-26T02:04:27.307Z,76969.00
2022-11-26T02:06:57.887Z,76962.75
2022-11-26T02:09:27.261Z,76948.22
2022-11-26T02:11:56.979Z,76958.59
2022-11-26T02:14:27.951Z,76960.69
2022-11-26T02:17:17.307Z,76966.94
2022-11-26T02:20:25.881Z,76956.53
2022-11-26T02:23:14.375Z,76960.69
2022-11-26T02:26:02.108Z,76952.38
2022-11-26T02:28:56.283Z,76952.38
2022-11-26T02:31:30.860Z,76964.84
2022-11-26T02:34:11.859Z,76969.00
2022-11-26T02:36:44.539Z,76981.47
2022-11-26T02:39:14.534Z,76983.56
2022-11-26T02:41:43.739Z,76985.63
2022-11-26T02:44:12.224Z,76983.56
2022-11-26T02:46:43.156Z,76981.47
2022-11-26T02:49:13.304Z,76985.63
2022-11-26T02:51:42.532Z,76985.63
2022-11-26T02:54:12.372Z,76985.63
2022-11-26T02:56:41.331Z,76987.72
2022-11-26T02:59:10.095Z,76989.81
2022-11-26T03:01:42.801Z,76989.81
2022-11-26T03:04:17.784Z,76989.81
2022-11-26T03:06:46.482Z,76989.81
2022-11-26T03:09:16.886Z,76987.72
2022-11-26T03:11:45.217Z,76983.56
2022-11-26T03:14:13.180Z,76983.56
2022-11-26T03:16:42.332Z,76985.63
2022-11-26T03:19:10.411Z,76981.47
2022-11-26T03:21:38.076Z,76985.63
2022-11-26T03:24:06.788Z,76985.63
2022-11-26T03:26:34.470Z,76981.47
2022-11-26T03:29:02.458Z,76985.63
2022-11-26T03:31:30.221Z,76998.13
2022-11-26T03:33:59.599Z,76993.97
2022-11-26T03:36:27.420Z,76998.13
2022-11-26T03:38:55.399Z,77004.34
2022-11-26T03:41:23.382Z,77006.44
2022-11-26T03:43:51.375Z,77002.28
2022-11-26T03:46:19.157Z,77002.28
2022-11-26T03:48:47.158Z,77014.75
2022-11-26T03:51:16.524Z,77018.91
2022-11-26T03:53:44.533Z,77025.16
2022-11-26T03:56:12.283Z,77023.06
2022-11-26T03:58:40.409Z,77039.69
2022-11-26T04:01:09.714Z,77045.94
2022-11-26T04:03:37.761Z,77050.09
2022-11-26T04:06:07.027Z,77052.19
2022-11-26T04:08:36.368Z,77064.66
2022-11-26T04:11:04.243Z,77062.56
2022-11-26T04:13:32.319Z,77066.75
2022-11-26T04:16:00.005Z,77068.81
2022-11-26T04:18:27.981Z,77081.28
2022-11-26T04:20:55.705Z,77077.13
2022-11-26T04:23:23.867Z,77089.59
2022-11-26T04:25:52.992Z,77095.84
2022-11-26T04:28:20.935Z,77114.56
2022-11-26T04:30:48.715Z,77122.88
2022-11-26T04:33:17.222Z,77143.69
2022-11-26T04:35:45.052Z,77152.00
2022-11-26T04:38:13.048Z,77149.91
2022-11-26T04:40:40.772Z,77139.53
2022-11-26T04:43:10.067Z,77127.03
2022-11-26T04:45:37.879Z,77141.59
2022-11-26T04:48:06.827Z,77147.84
2022-11-26T04:50:34.644Z,77147.84
2022-11-26T04:53:02.743Z,77143.69
2022-11-26T04:55:30.605Z,77143.69
2022-11-26T04:57:58.946Z,77135.34
2022-11-26T05:00:28.260Z,77135.34
2022-11-26T05:02:56.405Z,77118.72
2022-11-26T05:05:24.118Z,77122.88
2022-11-26T05:07:52.292Z,77131.19
2022-11-26T05:10:20.147Z,77135.34
2022-11-26T05:12:48.100Z,77135.34
2022-11-26T05:15:15.823Z,77135.34
2022-11-26T05:17:45.139Z,77143.69
2022-11-26T05:20:14.839Z,77131.19
2022-11-26T05:22:43.092Z,77133.28
2022-11-26T05:25:11.276Z,77135.34
2022-11-26T05:27:39.395Z,77141.59
2022-11-26T05:30:08.440Z,77135.34
2022-11-26T05:32:36.523Z,77131.19
2022-11-26T05:35:06.240Z,77131.19
2022-11-26T05:37:34.225Z,77129.13
2022-11-26T05:40:01.937Z,77120.81
2022-11-26T05:42:30.120Z,77122.88
2022-11-26T05:44:57.800Z,77120.81
2022-11-26T05:47:25.775Z,77127.03
2022-11-26T05:49:53.743Z,77139.53
2022-11-26T05:52:23.078Z,77139.53
2022-11-26T05:54:50.902Z,77139.53
2022-11-26T05:57:20.052Z,77156.16
2022-11-26T05:59:48.744Z,77160.31
2022-11-26T06:02:16.913Z,77164.47
2022-11-26T06:04:45.753Z,77172.78
2022-11-26T06:07:13.797Z,77183.19
2022-11-26T06:09:42.997Z,77185.28
2022-11-26T06:12:11.120Z,77201.91
2022-11-26T06:14:42.967Z,77210.22
2022-11-26T06:17:11.492Z,77214.38
2022-11-26T06:19:39.492Z,77235.19
2022-11-26T06:22:07.555Z,77243.50
2022-11-26T06:24:35.792Z,77255.97
2022-11-26T06:27:05.548Z,77268.44
2022-11-26T06:29:33.491Z,77264.28
2022-11-26T06:32:01.495Z,77276.75
2022-11-26T06:34:29.195Z,77301.72
2022-11-26T06:36:57.321Z,77285.09
2022-11-26T06:39:25.013Z,77289.25
2022-11-26T06:41:53.048Z,77314.19
2022-11-26T06:44:22.323Z,77335.00
2022-11-26T06:46:50.355Z,77343.31
2022-11-26T06:49:18.049Z,77335.00
2022-11-26T06:51:46.009Z,77322.50
2022-11-26T06:54:13.698Z,77293.41
2022-11-26T06:56:41.674Z,77283.00
2022-11-26T06:59:09.417Z,77280.94
2022-11-26T07:01:39.438Z,77264.28
2022-11-26T07:04:07.164Z,77245.56
2022-11-26T07:06:35.813Z,77235.19
2022-11-26T07:09:06.195Z,77218.53
2022-11-26T07:11:34.833Z,77226.84
2022-11-26T07:14:02.779Z,77201.91
2022-11-26T07:16:31.144Z,77195.66
2022-11-26T07:19:02.889Z,77191.50
2022-11-26T07:21:31.957Z,77181.09
2022-11-26T07:24:00.471Z,77181.09
2022-11-26T07:26:28.676Z,77172.78
2022-11-26T07:28:56.483Z,77174.88
2022-11-26T07:31:24.886Z,77158.22
2022-11-26T07:33:53.098Z,77149.91
2022-11-26T07:36:24.565Z,77145.75
2022-11-26T07:38:54.689Z,77139.53
2022-11-26T07:41:23.296Z,77137.44
2022-11-26T07:43:51.075Z,77135.34
2022-11-26T07:46:21.833Z,77131.19
2022-11-26T07:48:50.054Z,77122.88
2022-11-26T07:51:20.131Z,77122.88
2022-11-26T07:53:49.600Z,77127.03
2022-11-26T07:56:18.539Z,77118.72
2022-11-26T07:58:46.988Z,77127.03
2022-11-26T08:01:16.783Z,77122.88
2022-11-26T08:03:47.583Z,77112.47
2022-11-26T08:06:20.431Z,77100.00
2022-11-26T08:08:49.930Z,77089.59
2022-11-26T08:11:19.841Z,77072.97
2022-11-26T08:13:48.719Z,77072.97
2022-11-26T08:16:16.991Z,77060.50
2022-11-26T08:18:44.940Z,77045.94
2022-11-26T08:21:13.033Z,77031.38
2022-11-26T08:23:40.844Z,77033.47
2022-11-26T08:26:34.708Z,77031.38
2022-11-26T08:29:01.270Z,77010.59
2022-11-26T08:31:29.733Z,76998.13
2022-11-26T08:33:58.835Z,77006.44
2022-11-26T08:36:27.172Z,76991.88
2022-11-26T08:38:55.077Z,76989.81
2022-11-26T08:41:24.652Z,76977.31
2022-11-26T08:44:08.556Z,77000.19
2022-11-26T08:46:37.300Z,77002.28
2022-11-26T08:49:06.159Z,77008.50
2022-11-26T08:51:34.453Z,77010.59
2022-11-26T08:54:02.293Z,77010.59
2022-11-26T08:56:31.796Z,77023.06
2022-11-26T08:58:59.497Z,77016.84
2022-11-26T09:01:29.660Z,77023.06
2022-11-26T09:03:59.602Z,77010.59
2022-11-26T09:06:29.609Z,77016.84
2022-11-26T09:09:17.442Z,77010.59
2022-11-26T09:11:49.583Z,77010.59
2022-11-26T09:14:20.752Z,76998.13
2022-11-26T09:16:48.835Z,76977.31
2022-11-26T09:19:17.810Z,76894.16
2022-11-26T09:21:46.750Z,76885.84
2022-11-26T09:24:15.031Z,76890.00
2022-11-26T09:26:43.307Z,76923.25
2022-11-26T09:29:14.175Z,76923.25
2022-11-26T09:32:01.200Z,76912.84
2022-11-26T09:34:30.930Z,76910.78
2022-11-26T09:36:58.906Z,76873.34
2022-11-26T09:39:27.988Z,76885.84
2022-11-26T09:42:04.655Z,76902.47
2022-11-26T09:44:47.444Z,76912.84
2022-11-26T09:47:19.352Z,76952.38
2022-11-26T09:49:58.050Z,76944.06
2022-11-26T09:52:31.085Z,76939.88
2022-11-26T09:55:06.700Z,76948.22
2022-11-26T09:57:41.745Z,76948.22
2022-11-26T10:00:23.424Z,76956.53
2022-11-26T10:02:53.791Z,76960.69
2022-11-26T10:05:25.537Z,76956.53
2022-11-26T10:08:03.561Z,76952.38
2022-11-26T10:10:38.535Z,76960.69
2022-11-26T10:13:20.193Z,76964.84
2022-11-26T10:16:01.219Z,76960.69
2022-11-26T10:18:41.248Z,76977.31
2022-11-26T10:21:27.307Z,76979.41
2022-11-26T10:24:15.775Z,76998.13
2022-11-26T10:26:44.467Z,76998.13
2022-11-26T10:29:24.296Z,77002.28
2022-11-26T10:31:59.593Z,76993.97
2022-11-26T10:34:39.417Z,76998.13
2022-11-26T10:37:07.728Z,76998.13
2022-11-26T10:39:35.687Z,76985.63
2022-11-26T10:42:06.215Z,76983.56
2022-11-26T10:44:40.032Z,76983.56
2022-11-26T10:47:27.948Z,76985.63
2022-11-26T10:49:58.344Z,76977.31
2022-11-26T10:52:29.681Z,76969.00
2022-11-26T10:55:11.047Z,76962.75
2022-11-26T10:57:44.687Z,76956.53
2022-11-26T11:00:38.707Z,76946.13
2022-11-26T11:03:17.188Z,76944.06
2022-11-26T11:05:45.868Z,76933.66
2022-11-26T11:08:15.395Z,76929.50
2022-11-26T11:10:55.420Z,76923.25
2022-11-26T11:13:25.430Z,76914.94
2022-11-26T11:16:02.532Z,76912.84
2022-11-26T11:18:32.005Z,76906.63
2022-11-26T11:21:03.140Z,76902.47
2022-11-26T11:24:00.169Z,76890.00
2022-11-26T11:26:23.623Z,76887.91
2022-11-26T11:28:53.916Z,76898.31
2022-11-26T11:31:24.012Z,76902.47
2022-11-26T11:34:11.979Z,76883.75
2022-11-26T11:36:40.488Z,76879.59
2022-11-26T11:39:29.362Z,76890.00
2022-11-26T11:41:59.411Z,76919.09
2022-11-26T11:44:32.463Z,76921.19
2022-11-26T11:47:32.135Z,76935.72
2022-11-26T11:50:14.673Z,76937.81
2022-11-26T11:52:54.431Z,76923.25
2022-11-26T11:55:29.291Z,76927.41
2022-11-26T11:58:22.307Z,76912.84
2022-11-26T12:00:55.610Z,76927.41
2022-11-26T12:03:42.896Z,76917.03
2022-11-26T12:06:26.304Z,76914.94
2022-11-26T12:09:04.074Z,76944.06
2022-11-26T12:11:43.088Z,76952.38
2022-11-26T12:14:17.215Z,76931.56
2022-11-26T12:16:48.367Z,76929.50
2022-11-26T12:19:23.819Z,76931.56
2022-11-26T12:21:58.499Z,76929.50
2022-11-26T12:24:36.510Z,76952.38
2022-11-26T12:27:09.783Z,76941.97
2022-11-26T12:29:42.868Z,76944.06
2022-11-26T12:32:17.172Z,76950.28
2022-11-26T12:34:49.076Z,76948.22
2022-11-26T12:37:21.765Z,76971.09
2022-11-26T12:39:57.379Z,76960.69
2022-11-26T12:42:31.691Z,76973.16
2022-11-26T12:45:17.382Z,76960.69
2022-11-26T12:47:52.832Z,76979.41
2022-11-26T12:50:27.223Z,76964.84
2022-11-26T12:53:04.938Z,76962.75
2022-11-26T12:55:36.820Z,76956.53
2022-11-26T12:58:12.127Z,76939.88
2022-11-26T13:00:40.220Z,76948.22
2022-11-26T13:03:15.148Z,76948.22
2022-11-26T13:05:55.407Z,76979.41
2022-11-26T13:08:37.887Z,76989.81
2022-11-26T13:11:21.623Z,76977.31
2022-11-26T13:13:54.500Z,76975.25
2022-11-26T13:16:34.668Z,76983.56
2022-11-26T13:19:08.231Z,76981.47
2022-11-26T13:21:48.579Z,76993.97
2022-11-26T13:24:32.723Z,76993.97
2022-11-26T13:27:23.493Z,76993.97
2022-11-26T13:30:10.510Z,77006.44
2022-11-26T13:32:58.399Z,76998.13
2022-11-26T13:35:46.176Z,77002.28
2022-11-26T13:38:21.511Z,77023.06
2022-11-26T13:41:32.684Z,77018.91
2022-11-26T13:44:25.934Z,77010.59
2022-11-26T13:47:00.619Z,77002.28
2022-11-26T13:49:36.907Z,77010.59
2022-11-26T13:52:11.642Z,77018.91
2022-11-26T13:54:46.288Z,76987.72
2022-11-26T13:57:19.735Z,77006.44
2022-11-26T13:59:49.885Z,77018.91
2022-11-26T14:02:44.519Z,77027.22
2022-11-26T14:05:15.087Z,77031.38
2022-11-26T14:07:43.401Z,77050.09
2022-11-26T14:10:42.286Z,77048.03
2022-11-26T14:13:17.497Z,77039.69
2022-11-26T14:15:55.124Z,77048.03
2022-11-26T14:18:58.736Z,77041.78
2022-11-26T14:21:28.352Z,77043.88
2022-11-26T14:23:58.035Z,77039.69
2022-11-26T14:26:34.104Z,77035.53
2022-11-26T14:29:12.047Z,77037.63
2022-11-26T14:31:43.703Z,77035.53
2022-11-26T14:34:16.748Z,77033.47
2022-11-26T14:36:56.622Z,77037.63
2022-11-26T14:39:25.092Z,77045.94
2022-11-26T14:42:02.199Z,77056.34
2022-11-26T14:44:34.800Z,77068.81
2022-11-26T14:47:10.826Z,77058.41
2022-11-26T14:49:40.335Z,77043.88
2022-11-26T14:52:18.452Z,77039.69
2022-11-26T14:54:48.427Z,77043.88
2022-11-26T14:57:22.054Z,77058.41
2022-11-26T14:59:58.659Z,77052.19
2022-11-26T15:02:29.071Z,77066.75
2022-11-26T15:05:02.058Z,77060.50
2022-11-26T15:07:31.900Z,77064.66
2022-11-26T15:10:05.179Z,77060.50
2022-11-26T15:12:35.608Z,77058.41
2022-11-26T15:15:05.897Z,77060.50
2022-11-26T15:17:35.344Z,77060.50
2022-11-26T15:20:07.606Z,77064.66
2022-11-26T15:22:39.007Z,77077.13
2022-11-26T15:25:16.047Z,77068.81
2022-11-26T15:27:53.191Z,77068.81
2022-11-26T15:30:25.762Z,77058.41
2022-11-26T15:33:04.720Z,77056.34
2022-11-26T15:35:33.252Z,77077.13
2022-11-26T15:38:01.625Z,77077.13
2022-11-26T15:40:32.376Z,77072.97
2022-11-26T15:43:03.168Z,77062.56
2022-11-26T15:45:36.965Z,77068.81
2022-11-26T15:48:07.476Z,77064.66
2022-11-26T15:50:38.259Z,77052.19
2022-11-26T15:53:14.263Z,77056.34
2022-11-26T15:55:47.463Z,77064.66
2022-11-26T15:58:22.520Z,77064.66
2022-11-26T16:00:54.634Z,77056.34
2022-11-26T16:03:42.315Z,77060.50
2022-11-26T16:06:27.839Z,77064.66
2022-11-26T16:09:02.308Z,77072.97
2022-11-26T16:11:31.833Z,77068.81
2022-11-26T16:13:59.900Z,77060.50
2022-11-26T16:16:28.985Z,77081.28
2022-11-26T16:18:59.693Z,77072.97
2022-11-26T16:21:30.128Z,77072.97
2022-11-26T16:24:00.415Z,77081.28
2022-11-26T16:26:28.676Z,77081.28
2022-11-26T16:28:56.646Z,77077.13
2022-11-26T16:31:24.638Z,77066.75
2022-11-26T16:33:54.003Z,77068.81
2022-11-26T16:36:25.031Z,77072.97
2022-11-26T16:38:53.841Z,77075.06
2022-11-26T16:41:23.289Z,77077.13
2022-11-26T16:43:51.619Z,77089.59
2022-11-26T16:46:23.226Z,77085.44
2022-11-26T16:48:52.314Z,77093.78
2022-11-26T16:51:22.193Z,77100.00
2022-11-26T16:53:50.767Z,77114.56
2022-11-26T16:56:22.791Z,77089.59
2022-11-26T16:58:51.101Z,77102.09
2022-11-26T17:01:19.222Z,77095.84
2022-11-26T17:03:47.291Z,77102.09
2022-11-26T17:06:19.156Z,77114.56
2022-11-26T17:11:36.719Z,77106.25
2022-11-26T17:14:04.740Z,77093.78
2022-11-26T17:16:32.506Z,77102.09
2022-11-26T17:19:00.667Z,77102.09
2022-11-26T17:21:28.387Z,77118.72
2022-11-26T17:23:57.884Z,77114.56
2022-11-26T17:26:26.340Z,77114.56
2022-11-26T17:28:54.644Z,77120.81
2022-11-26T17:31:22.418Z,77122.88
2022-11-26T17:33:51.053Z,77124.97
2022-11-26T17:36:21.210Z,77135.34
2022-11-26T17:38:49.820Z,77135.34
2022-11-26T17:41:19.038Z,77139.53
2022-11-26T17:43:47.288Z,77143.69
2022-11-26T17:46:20.023Z,77143.69
2022-11-26T17:48:49.309Z,77143.69
2022-11-26T17:51:18.062Z,77147.84
2022-11-26T17:53:46.574Z,77152.00
2022-11-26T17:56:20.968Z,77162.41
2022-11-26T17:58:49.423Z,77158.22
2022-11-26T18:01:18.443Z,77174.88
2022-11-26T18:03:46.744Z,77170.72
2022-11-26T18:06:19.034Z,77185.28
2022-11-26T18:08:47.388Z,77189.44
2022-11-26T18:11:16.672Z,77193.59
2022-11-26T18:13:46.190Z,77195.66
2022-11-26T18:16:13.946Z,77206.06
2022-11-26T18:18:41.930Z,77197.75
2022-11-26T18:21:09.771Z,77210.22
2022-11-26T18:23:37.720Z,77218.53
2022-11-26T18:26:05.551Z,77222.69
2022-11-26T18:28:33.796Z,77222.69
2022-11-26T18:31:02.893Z,77226.84
2022-11-26T18:33:30.860Z,77239.34
2022-11-26T18:35:58.519Z,77231.00
2022-11-26T18:38:28.978Z,77235.19
2022-11-26T18:41:02.107Z,77249.72
2022-11-26T18:43:30.331Z,77243.50
2022-11-26T18:45:58.158Z,77243.50
2022-11-26T18:48:27.495Z,77247.66
2022-11-26T18:50:58.533Z,77243.50
2022-11-26T18:53:28.414Z,77251.81
2022-11-26T18:55:56.829Z,77255.97
2022-11-26T18:58:25.487Z,77245.56
2022-11-26T19:00:58.292Z,77251.81
2022-11-26T19:03:28.262Z,77243.50
2022-11-26T19:05:56.438Z,77251.81
2022-11-26T19:08:25.109Z,77262.22
2022-11-26T19:10:52.832Z,77268.44
2022-11-26T19:13:21.266Z,77280.94
2022-11-26T19:15:49.529Z,77299.63
2022-11-26T19:18:17.664Z,77301.72
2022-11-26T19:20:51.208Z,77318.34
2022-11-26T19:23:24.181Z,77318.34
2022-11-26T19:25:52.017Z,77332.91
2022-11-26T19:28:19.999Z,77341.22
2022-11-26T19:30:58.582Z,77345.41
2022-11-26T19:33:26.755Z,77355.78
2022-11-26T19:35:56.037Z,77364.09
2022-11-26T19:38:24.328Z,77351.63
2022-11-26T19:40:57.062Z,77376.59
2022-11-26T19:43:26.103Z,77380.75
2022-11-26T19:46:01.522Z,77384.91
2022-11-26T19:48:29.652Z,77384.91
2022-11-26T19:50:58.709Z,77380.75
2022-11-26T19:53:26.959Z,77389.06
2022-11-26T19:55:59.803Z,77395.31
2022-11-26T19:58:28.322Z,77389.06
2022-11-26T20:00:56.094Z,77405.69
2022-11-26T20:03:24.936Z,77401.53
2022-11-26T20:05:53.187Z,77411.94
2022-11-26T20:08:22.511Z,77414.03
2022-11-26T20:10:50.328Z,77414.03
2022-11-26T20:13:18.370Z,77418.19
2022-11-26T20:15:47.394Z,77418.19
2022-11-26T20:18:16.120Z,77426.50
2022-11-26T20:20:43.840Z,77438.97
2022-11-26T20:23:11.886Z,77447.28
2022-11-26T20:25:40.923Z,77438.97
2022-11-26T20:28:09.938Z,77447.28
2022-11-26T20:30:38.531Z,77459.78
2022-11-26T20:33:07.088Z,77451.44
2022-11-26T20:35:34.891Z,77451.44
2022-11-26T20:38:02.865Z,77436.91
2022-11-26T20:40:30.568Z,77441.06
2022-11-26T20:42:59.972Z,77443.13
2022-11-26T20:45:27.749Z,77453.53
2022-11-26T20:47:57.267Z,77453.53
2022-11-26T20:50:25.537Z,77451.44
2022-11-26T20:52:53.712Z,77451.44
2022-11-26T20:55:21.964Z,77453.53
2022-11-26T20:57:51.367Z,77455.63
2022-11-26T21:00:24.927Z,77455.63
2022-11-26T21:02:55.569Z,77459.78
2022-11-26T21:05:24.025Z,77468.09
2022-11-26T21:07:52.132Z,77468.09
2022-11-26T21:10:25.031Z,77472.25
2022-11-26T21:12:53.126Z,77472.25
2022-11-26T21:15:23.050Z,77474.34
2022-11-26T21:17:51.299Z,77459.78
2022-11-26T21:20:19.197Z,77463.94
2022-11-26T21:22:47.199Z,77474.34
2022-11-26T21:25:16.228Z,77463.94
2022-11-26T21:27:44.243Z,77459.78
2022-11-26T21:30:13.406Z,77480.56
2022-11-26T21:32:43.008Z,77493.03
2022-11-26T21:35:11.339Z,77480.56
2022-11-26T21:37:39.339Z,77488.88
2022-11-26T21:40:08.592Z,77497.22
2022-11-26T21:42:36.564Z,77488.88
2022-11-26T21:45:05.060Z,77497.22
2022-11-26T21:47:33.263Z,77501.38
2022-11-26T21:50:02.382Z,77501.38
2022-11-26T21:52:30.492Z,77499.28
2022-11-26T21:55:03.277Z,77505.53
2022-11-26T21:57:32.480Z,77509.69
2022-11-26T22:00:00.566Z,77501.38
2022-11-26T22:02:28.561Z,77503.44
2022-11-26T22:04:56.435Z,77515.91
2022-11-26T22:07:26.015Z,77513.84
2022-11-26T22:09:53.848Z,77509.69
2022-11-26T22:12:21.819Z,77509.69
2022-11-26T22:14:49.497Z,77509.69
2022-11-26T22:17:17.443Z,77513.84
2022-11-26T22:19:45.159Z,77518.00
2022-11-26T22:22:13.175Z,77526.31
2022-11-26T22:24:42.309Z,77530.47
2022-11-26T22:27:10.390Z,77534.63
2022-11-26T22:29:38.383Z,77542.97
2022-11-26T22:32:07.158Z,77547.13
2022-11-26T22:34:34.875Z,77551.28
2022-11-26T22:37:02.986Z,77555.44
2022-11-26T22:39:31.709Z,77561.69
2022-11-26T22:42:01.720Z,77567.91
2022-11-26T22:44:29.463Z,77551.28
2022-11-26T22:46:57.408Z,77549.19
2022-11-26T22:49:25.411Z,77561.69
2022-11-26T22:51:53.364Z,77559.59
2022-11-26T22:54:21.321Z,77551.28
2022-11-26T22:56:49.292Z,77555.44
2022-11-26T22:59:18.422Z,77553.34
2022-11-26T23:01:46.540Z,77559.59
2022-11-26T23:04:14.307Z,77578.31
2022-11-26T23:06:42.669Z,77584.56
2022-11-26T23:09:13.315Z,77584.56
2022-11-26T23:11:43.036Z,77597.03
2022-11-26T23:14:12.039Z,77626.16
2022-11-26T23:16:43.298Z,77613.66
2022-11-26T23:19:14.633Z,77601.19
2022-11-26T23:21:44.687Z,77597.03
2022-11-26T23:24:13.564Z,77584.56
2022-11-26T23:26:41.952Z,77580.41
2022-11-26T23:29:11.032Z,77582.47
2022-11-26T23:31:42.923Z,77572.06
2022-11-26T23:34:11.235Z,77572.06
2022-11-26T23:36:39.371Z,77576.22
2022-11-26T23:39:10.468Z,77576.22
2022-11-26T23:41:38.468Z,77574.16
2022-11-26T23:44:06.316Z,77578.31
2022-11-26T23:46:36.169Z,77567.91
2022-11-26T23:49:05.383Z,77559.59
2022-11-26T23:51:34.154Z,77557.50
2022-11-26T23:54:01.994Z,77563.75
2022-11-26T23:56:31.639Z,77555.44
2022-11-26T23:59:01.537Z,77555.44
